sensor_id;sensor_type;location;lat;lon;timestamp;temperature;humidity
2929;DHT22;1474;51.460;7.150;2023-12-20T06:03:04;15.90;60.70
2929;DHT22;1474;51.460;7.150;2023-12-20T06:05:31;15.90;60.70
2929;DHT22;1474;51.460;7.150;2023-12-20T06:07:56;15.90;60.70
2929;DHT22;1474;51.460;7.150;2023-12-20T06:10:27;15.90;60.70
2929;DHT22;1474;51.460;7.150;2023-12-20T06:12:52;15.90;60.60
2929;DHT22;1474;51.460;7.150;2023-12-20T06:15:18;15.90;60.60
2929;DHT22;1474;51.460;7.150;2023-12-20T06:17:45;15.90;60.60
2929;DHT22;1474;51.460;7.150;2023-12-20T06:20:12;15.90;60.60
2929;DHT22;1474;51.460;7.150;2023-12-20T06:22:38;15.90;60.60
2929;DHT22;1474;51.460;7.150;2023-12-20T06:25:05;15.90;60.60
2929;DHT22;1474;51.460;7.150;2023-12-20T06:27:32;15.90;60.60
2929;DHT22;1474;51.460;7.150;2023-12-20T06:29:58;15.90;60.50
2929;DHT22;1474;51.460;7.150;2023-12-20T06:32:24;15.90;60.50
2929;DHT22;1474;51.460;7.150;2023-12-20T06:34:50;15.90;60.60
2929;DHT22;1474;51.460;7.150;2023-12-20T06:37:16;15.90;60.50
2929;DHT22;1474;51.460;7.150;2023-12-20T06:39:41;15.90;60.50
2929;DHT22;1474;51.460;7.150;2023-12-20T06:42:07;15.90;60.50
2929;DHT22;1474;51.460;7.150;2023-12-20T06:44:33;15.90;60.50
2929;DHT22;1474;51.460;7.150;2023-12-20T06:46:59;15.90;60.50
2929;DHT22;1474;51.460;7.150;2023-12-20T06:49:25;15.90;60.50
2929;DHT22;1474;51.460;7.150;2023-12-20T06:51:51;15.90;60.50
2929;DHT22;1474;51.460;7.150;2023-12-20T06:54:17;15.90;60.50
2929;DHT22;1474;51.460;7.150;2023-12-20T06:56:42;15.90;60.50
2929;DHT22;1474;51.460;7.150;2023-12-20T06:59:08;15.90;60.50
2929;DHT22;1474;51.460;7.150;2023-12-20T07:01:34;15.90;60.40
2929;DHT22;1474;51.460;7.150;2023-12-20T07:04:00;15.90;60.40
2929;DHT22;1474;51.460;7.150;2023-12-20T07:06:25;15.90;60.50
2929;DHT22;1474;51.460;7.150;2023-12-20T07:08:52;15.90;60.40
2929;DHT22;1474;51.460;7.150;2023-12-20T07:11:18;15.90;60.40
2929;DHT22;1474;51.460;7.150;2023-12-20T07:13:43;15.90;60.50
2929;DHT22;1474;51.460;7.150;2023-12-20T07:16:09;15.90;60.50
2929;DHT22;1474;51.460;7.150;2023-12-20T07:18:35;15.90;60.40
2929;DHT22;1474;51.460;7.150;2023-12-20T07:21:01;15.90;60.40
2929;DHT22;1474;51.460;7.150;2023-12-20T07:23:26;15.90;60.50
2929;DHT22;1474;51.460;7.150;2023-12-20T07:25:52;15.90;60.40
2929;DHT22;1474;51.460;7.150;2023-12-20T07:28:18;15.90;60.40
2929;DHT22;1474;51.460;7.150;2023-12-20T07:30:44;15.90;60.50
2929;DHT22;1474;51.460;7.150;2023-12-20T07:33:10;15.90;60.40
2929;DHT22;1474;51.460;7.150;2023-12-20T07:35:37;15.90;60.50
2929;DHT22;1474;51.460;7.150;2023-12-20T07:38:03;15.90;60.50
2929;DHT22;1474;51.460;7.150;2023-12-20T07:40:29;15.90;60.40
2929;DHT22;1474;51.460;7.150;2023-12-20T07:42:55;15.90;60.50
2929;DHT22;1474;51.460;7.150;2023-12-20T07:45:21;15.90;60.40
2929;DHT22;1474;51.460;7.150;2023-12-20T07:47:46;15.90;60.50
2929;DHT22;1474;51.460;7.150;2023-12-20T07:50:12;15.90;60.50
2929;DHT22;1474;51.460;7.150;2023-12-20T07:52:38;15.90;60.50
2929;DHT22;1474;51.460;7.150;2023-12-20T07:55:04;15.90;60.40
2929;DHT22;1474;51.460;7.150;2023-12-20T07:57:30;15.90;60.50
2929;DHT22;1474;51.460;7.150;2023-12-20T07:59:56;15.90;60.40
2929;DHT22;1474;51.460;7.150;2023-12-20T08:02:22;15.90;60.40
2929;DHT22;1474;51.460;7.150;2023-12-20T08:04:47;15.90;60.40
2929;DHT22;1474;51.460;7.150;2023-12-20T08:07:13;15.90;60.50
2929;DHT22;1474;51.460;7.150;2023-12-20T08:09:39;15.90;60.40
2929;DHT22;1474;51.460;7.150;2023-12-20T08:12:05;15.90;60.40
2929;DHT22;1474;51.460;7.150;2023-12-20T08:14:31;15.90;60.40
2929;DHT22;1474;51.460;7.150;2023-12-20T08:16:57;15.90;60.40
2929;DHT22;1474;51.460;7.150;2023-12-20T08:19:22;15.90;60.50
2929;DHT22;1474;51.460;7.150;2023-12-20T08:21:48;15.90;60.40
2929;DHT22;1474;51.460;7.150;2023-12-20T08:24:14;15.90;60.40
2929;DHT22;1474;51.460;7.150;2023-12-20T08:26:40;15.90;60.40
2929;DHT22;1474;51.460;7.150;2023-12-20T08:29:06;15.90;60.40
2929;DHT22;1474;51.460;7.150;2023-12-20T08:31:34;15.90;60.40
2929;DHT22;1474;51.460;7.150;2023-12-20T08:34:00;15.90;60.40
2929;DHT22;1474;51.460;7.150;2023-12-20T08:36:26;15.90;60.40
2929;DHT22;1474;51.460;7.150;2023-12-20T08:38:51;15.90;60.40
2929;DHT22;1474;51.460;7.150;2023-12-20T08:41:18;15.90;60.40
2929;DHT22;1474;51.460;7.150;2023-12-20T08:43:44;15.90;61.00
2929;DHT22;1474;51.460;7.150;2023-12-20T08:46:09;15.90;60.40
2929;DHT22;1474;51.460;7.150;2023-12-20T08:48:35;15.90;60.40
2929;DHT22;1474;51.460;7.150;2023-12-20T08:51:01;15.90;60.40
2929;DHT22;1474;51.460;7.150;2023-12-20T08:53:27;15.90;60.40
2929;DHT22;1474;51.460;7.150;2023-12-20T08:55:53;15.90;60.40
2929;DHT22;1474;51.460;7.150;2023-12-20T08:58:18;15.90;60.40
2929;DHT22;1474;51.460;7.150;2023-12-20T09:00:45;15.90;60.40
2929;DHT22;1474;51.460;7.150;2023-12-20T09:03:11;15.90;60.40
2929;DHT22;1474;51.460;7.150;2023-12-20T09:05:36;15.90;60.40
2929;DHT22;1474;51.460;7.150;2023-12-20T09:08:02;15.90;60.40
2929;DHT22;1474;51.460;7.150;2023-12-20T09:10:28;15.90;60.40
2929;DHT22;1474;51.460;7.150;2023-12-20T09:12:54;15.90;60.40
2929;DHT22;1474;51.460;7.150;2023-12-20T09:15:26;15.90;60.40
2929;DHT22;1474;51.460;7.150;2023-12-20T09:17:53;15.90;60.50
2929;DHT22;1474;51.460;7.150;2023-12-20T09:20:19;15.90;60.40
2929;DHT22;1474;51.460;7.150;2023-12-20T09:22:45;15.90;60.40
2929;DHT22;1474;51.460;7.150;2023-12-20T09:25:11;15.90;60.40
2929;DHT22;1474;51.460;7.150;2023-12-20T09:27:39;15.90;60.40
2929;DHT22;1474;51.460;7.150;2023-12-20T09:30:05;15.90;60.40
2929;DHT22;1474;51.460;7.150;2023-12-20T09:32:31;15.90;60.40
2929;DHT22;1474;51.460;7.150;2023-12-20T09:34:57;15.90;60.40
2929;DHT22;1474;51.460;7.150;2023-12-20T09:37:27;15.90;60.40
2929;DHT22;1474;51.460;7.150;2023-12-20T09:39:54;15.90;60.40
2929;DHT22;1474;51.460;7.150;2023-12-20T09:43:25;15.90;60.40
2929;DHT22;1474;51.460;7.150;2023-12-20T09:45:46;15.90;60.40
2929;DHT22;1474;51.460;7.150;2023-12-20T09:48:14;15.90;60.40
2929;DHT22;1474;51.460;7.150;2023-12-20T09:50:43;15.90;60.40
2929;DHT22;1474;51.460;7.150;2023-12-20T09:53:10;15.90;60.40
2929;DHT22;1474;51.460;7.150;2023-12-20T09:55:41;15.90;60.40
2929;DHT22;1474;51.460;7.150;2023-12-20T09:58:07;15.90;60.40
2929;DHT22;1474;51.460;7.150;2023-12-20T10:00:35;15.90;60.40
2929;DHT22;1474;51.460;7.150;2023-12-20T10:03:01;15.90;60.40
2929;DHT22;1474;51.460;7.150;2023-12-20T10:07:58;15.90;60.40
2929;DHT22;1474;51.460;7.150;2023-12-20T10:10:24;15.90;60.40
2929;DHT22;1474;51.460;7.150;2023-12-20T10:13:10;15.90;60.40
2929;DHT22;1474;51.460;7.150;2023-12-20T10:15:37;15.90;60.40
2929;DHT22;1474;51.460;7.150;2023-12-20T10:18:03;15.90;60.40
2929;DHT22;1474;51.460;7.150;2023-12-20T10:20:31;15.90;60.40
2929;DHT22;1474;51.460;7.150;2023-12-20T10:22:58;15.90;60.40
2929;DHT22;1474;51.460;7.150;2023-12-20T10:25:25;15.90;60.40
2929;DHT22;1474;51.460;7.150;2023-12-20T10:28:09;15.90;60.40
2929;DHT22;1474;51.460;7.150;2023-12-20T10:30:36;15.90;60.40
2929;DHT22;1474;51.460;7.150;2023-12-20T10:33:02;15.90;60.40
2929;DHT22;1474;51.460;7.150;2023-12-20T10:35:27;15.90;60.30
2929;DHT22;1474;51.460;7.150;2023-12-20T10:37:56;15.90;60.40
2929;DHT22;1474;51.460;7.150;2023-12-20T10:40:23;15.90;60.30
2929;DHT22;1474;51.460;7.150;2023-12-20T10:42:50;15.90;60.30
2929;DHT22;1474;51.460;7.150;2023-12-20T10:45:16;15.90;60.30
2929;DHT22;1474;51.460;7.150;2023-12-20T10:47:46;15.90;60.30
2929;DHT22;1474;51.460;7.150;2023-12-20T10:50:12;15.90;60.30
2929;DHT22;1474;51.460;7.150;2023-12-20T10:52:38;15.90;60.30
2929;DHT22;1474;51.460;7.150;2023-12-20T10:55:06;16.00;60.40
2929;DHT22;1474;51.460;7.150;2023-12-20T10:57:33;15.90;60.30
2929;DHT22;1474;51.460;7.150;2023-12-20T11:00:01;15.90;60.30
2929;DHT22;1474;51.460;7.150;2023-12-20T11:02:32;15.90;60.30
2929;DHT22;1474;51.460;7.150;2023-12-20T11:08:15;16.00;60.40
2929;DHT22;1474;51.460;7.150;2023-12-20T11:10:55;15.90;60.30
2929;DHT22;1474;51.460;7.150;2023-12-20T11:13:34;15.90;60.30
2929;DHT22;1474;51.460;7.150;2023-12-20T11:16:05;15.90;60.40
2929;DHT22;1474;51.460;7.150;2023-12-20T11:18:34;15.90;60.40
2929;DHT22;1474;51.460;7.150;2023-12-20T11:21:04;15.90;60.40
2929;DHT22;1474;51.460;7.150;2023-12-20T11:23:31;15.90;60.40
2929;DHT22;1474;51.460;7.150;2023-12-20T11:25:59;15.90;60.40
2929;DHT22;1474;51.460;7.150;2023-12-20T11:28:27;15.90;60.40
2929;DHT22;1474;51.460;7.150;2023-12-20T11:30:54;15.90;60.40
2929;DHT22;1474;51.460;7.150;2023-12-20T11:33:22;15.90;60.40
2929;DHT22;1474;51.460;7.150;2023-12-20T11:35:50;15.90;60.40
2929;DHT22;1474;51.460;7.150;2023-12-20T11:38:16;15.90;60.40
2929;DHT22;1474;51.460;7.150;2023-12-20T11:40:51;15.90;60.40
2929;DHT22;1474;51.460;7.150;2023-12-20T11:43:32;15.90;60.40
2929;DHT22;1474;51.460;7.150;2023-12-20T11:46:08;15.90;60.30
2929;DHT22;1474;51.460;7.150;2023-12-20T11:48:37;15.90;60.40
2929;DHT22;1474;51.460;7.150;2023-12-20T11:51:11;16.00;60.40
2929;DHT22;1474;51.460;7.150;2023-12-20T11:53:37;16.00;60.40
2929;DHT22;1474;51.460;7.150;2023-12-20T11:56:07;16.00;60.40
2929;DHT22;1474;51.460;7.150;2023-12-20T11:58:36;15.90;60.30
2929;DHT22;1474;51.460;7.150;2023-12-20T12:01:02;15.90;60.30
2929;DHT22;1474;51.460;7.150;2023-12-20T12:03:29;15.90;60.30
2929;DHT22;1474;51.460;7.150;2023-12-20T12:05:58;16.00;60.40
2929;DHT22;1474;51.460;7.150;2023-12-20T12:08:26;15.90;60.30
2929;DHT22;1474;51.460;7.150;2023-12-20T12:10:52;15.90;60.30
2929;DHT22;1474;51.460;7.150;2023-12-20T12:13:17;15.90;60.30
2929;DHT22;1474;51.460;7.150;2023-12-20T12:15:43;15.90;60.30
2929;DHT22;1474;51.460;7.150;2023-12-20T12:18:10;15.90;60.30
2929;DHT22;1474;51.460;7.150;2023-12-20T12:20:36;16.00;60.30
2929;DHT22;1474;51.460;7.150;2023-12-20T12:23:04;16.00;60.10
2929;DHT22;1474;51.460;7.150;2023-12-20T12:25:32;16.00;60.30
2929;DHT22;1474;51.460;7.150;2023-12-20T12:28:00;16.00;60.30
2929;DHT22;1474;51.460;7.150;2023-12-20T12:30:26;16.00;60.90
2929;DHT22;1474;51.460;7.150;2023-12-20T12:32:53;15.90;60.30
2929;DHT22;1474;51.460;7.150;2023-12-20T12:35:20;15.90;60.30
2929;DHT22;1474;51.460;7.150;2023-12-20T12:37:46;15.90;60.30
2929;DHT22;1474;51.460;7.150;2023-12-20T12:40:16;15.90;60.30
2929;DHT22;1474;51.460;7.150;2023-12-20T12:42:43;16.00;60.30
2929;DHT22;1474;51.460;7.150;2023-12-20T12:45:10;15.90;60.30
2929;DHT22;1474;51.460;7.150;2023-12-20T12:47:37;15.90;60.40
2929;DHT22;1474;51.460;7.150;2023-12-20T12:50:04;15.90;60.40
2929;DHT22;1474;51.460;7.150;2023-12-20T12:52:30;15.90;60.40
2929;DHT22;1474;51.460;7.150;2023-12-20T12:54:56;16.00;60.40
2929;DHT22;1474;51.460;7.150;2023-12-20T12:57:22;16.00;60.40
2929;DHT22;1474;51.460;7.150;2023-12-20T12:59:49;15.90;60.40
2929;DHT22;1474;51.460;7.150;2023-12-20T13:02:15;15.90;60.30
2929;DHT22;1474;51.460;7.150;2023-12-20T13:04:41;16.00;60.40
2929;DHT22;1474;51.460;7.150;2023-12-20T13:07:08;15.90;60.30
2929;DHT22;1474;51.460;7.150;2023-12-20T13:09:38;16.00;60.40
2929;DHT22;1474;51.460;7.150;2023-12-20T13:12:05;16.00;60.40
2929;DHT22;1474;51.460;7.150;2023-12-20T13:14:33;16.00;60.40
2929;DHT22;1474;51.460;7.150;2023-12-20T13:17:01;15.90;60.30
2929;DHT22;1474;51.460;7.150;2023-12-20T13:19:27;15.90;60.30
2929;DHT22;1474;51.460;7.150;2023-12-20T13:21:53;16.00;60.40
2929;DHT22;1474;51.460;7.150;2023-12-20T13:24:19;15.90;60.30
2929;DHT22;1474;51.460;7.150;2023-12-20T13:26:44;16.00;60.40
2929;DHT22;1474;51.460;7.150;2023-12-20T13:29:10;16.00;60.40
2929;DHT22;1474;51.460;7.150;2023-12-20T13:31:37;16.00;60.30
2929;DHT22;1474;51.460;7.150;2023-12-20T13:34:03;15.90;60.30
2929;DHT22;1474;51.460;7.150;2023-12-20T13:36:29;16.00;60.30
2929;DHT22;1474;51.460;7.150;2023-12-20T13:38:55;16.00;60.40
2929;DHT22;1474;51.460;7.150;2023-12-20T13:41:21;15.90;60.30
2929;DHT22;1474;51.460;7.150;2023-12-20T13:43:46;16.00;60.40
2929;DHT22;1474;51.460;7.150;2023-12-20T13:46:12;16.00;60.90
2929;DHT22;1474;51.460;7.150;2023-12-20T13:48:39;16.00;60.40
2929;DHT22;1474;51.460;7.150;2023-12-20T13:51:05;16.00;60.40
2929;DHT22;1474;51.460;7.150;2023-12-20T13:53:31;16.00;60.40
2929;DHT22;1474;51.460;7.150;2023-12-20T13:55:57;16.00;60.40
2929;DHT22;1474;51.460;7.150;2023-12-20T13:58:23;16.00;60.40
2929;DHT22;1474;51.460;7.150;2023-12-20T14:00:49;16.00;60.40
2929;DHT22;1474;51.460;7.150;2023-12-20T14:03:15;15.90;60.30
2929;DHT22;1474;51.460;7.150;2023-12-20T14:05:40;15.90;60.30
2929;DHT22;1474;51.460;7.150;2023-12-20T14:08:06;15.90;60.30
2929;DHT22;1474;51.460;7.150;2023-12-20T14:10:33;15.90;60.30
2929;DHT22;1474;51.460;7.150;2023-12-20T14:12:58;16.00;60.40
2929;DHT22;1474;51.460;7.150;2023-12-20T14:15:24;15.90;60.30
2929;DHT22;1474;51.460;7.150;2023-12-20T14:17:50;15.90;60.90
2929;DHT22;1474;51.460;7.150;2023-12-20T14:20:16;16.00;61.00
2929;DHT22;1474;51.460;7.150;2023-12-20T14:22:43;16.00;60.40
2929;DHT22;1474;51.460;7.150;2023-12-20T14:25:13;15.90;60.30
2929;DHT22;1474;51.460;7.150;2023-12-20T14:27:40;16.00;60.40
2929;DHT22;1474;51.460;7.150;2023-12-20T14:30:09;16.00;60.40
2929;DHT22;1474;51.460;7.150;2023-12-20T14:32:35;15.90;60.40
2929;DHT22;1474;51.460;7.150;2023-12-20T14:35:07;15.90;60.50
2929;DHT22;1474;51.460;7.150;2023-12-20T14:37:34;15.90;60.40
2929;DHT22;1474;51.460;7.150;2023-12-20T14:40:00;16.00;60.50
2929;DHT22;1474;51.460;7.150;2023-12-20T14:42:26;16.00;60.50
2929;DHT22;1474;51.460;7.150;2023-12-20T14:44:52;16.00;60.50
2929;DHT22;1474;51.460;7.150;2023-12-20T14:47:19;15.90;60.40
2929;DHT22;1474;51.460;7.150;2023-12-20T14:49:45;16.00;60.50
2929;DHT22;1474;51.460;7.150;2023-12-20T14:52:13;16.00;60.50
2929;DHT22;1474;51.460;7.150;2023-12-20T14:54:39;15.90;60.40
2929;DHT22;1474;51.460;7.150;2023-12-20T14:57:05;16.00;60.50
2929;DHT22;1474;51.460;7.150;2023-12-20T14:59:30;16.00;60.40
2929;DHT22;1474;51.460;7.150;2023-12-20T15:01:56;15.90;60.40
2929;DHT22;1474;51.460;7.150;2023-12-20T15:04:22;16.00;60.40
2929;DHT22;1474;51.460;7.150;2023-12-20T15:06:56;15.90;60.40
2929;DHT22;1474;51.460;7.150;2023-12-20T15:09:22;16.00;60.50
2929;DHT22;1474;51.460;7.150;2023-12-20T15:11:48;16.00;60.40
2929;DHT22;1474;51.460;7.150;2023-12-20T15:14:14;16.00;60.50
2929;DHT22;1474;51.460;7.150;2023-12-20T15:16:44;16.00;60.50
2929;DHT22;1474;51.460;7.150;2023-12-20T15:19:14;16.00;60.50
2929;DHT22;1474;51.460;7.150;2023-12-20T15:21:40;15.90;60.40
2929;DHT22;1474;51.460;7.150;2023-12-20T15:24:11;16.00;60.50
2929;DHT22;1474;51.460;7.150;2023-12-20T15:26:46;15.90;60.40
2929;DHT22;1474;51.460;7.150;2023-12-20T15:29:12;16.00;60.40
2929;DHT22;1474;51.460;7.150;2023-12-20T15:31:46;15.90;60.40
2929;DHT22;1474;51.460;7.150;2023-12-20T15:34:12;15.90;60.40
2929;DHT22;1474;51.460;7.150;2023-12-20T15:36:39;15.90;60.40
2929;DHT22;1474;51.460;7.150;2023-12-20T15:39:06;16.00;60.50
2929;DHT22;1474;51.460;7.150;2023-12-20T15:41:34;16.00;60.50
2929;DHT22;1474;51.460;7.150;2023-12-20T15:44:00;15.90;60.40
2929;DHT22;1474;51.460;7.150;2023-12-20T15:46:26;16.00;60.50
2929;DHT22;1474;51.460;7.150;2023-12-20T15:48:51;16.00;60.50
2929;DHT22;1474;51.460;7.150;2023-12-20T15:51:20;16.00;60.50
2929;DHT22;1474;51.460;7.150;2023-12-20T15:53:47;16.00;60.40
2929;DHT22;1474;51.460;7.150;2023-12-20T15:56:12;16.00;60.50
2929;DHT22;1474;51.460;7.150;2023-12-20T15:58:38;16.00;60.40
2929;DHT22;1474;51.460;7.150;2023-12-20T16:01:04;15.90;60.40
2929;DHT22;1474;51.460;7.150;2023-12-20T16:03:30;16.00;60.40
2929;DHT22;1474;51.460;7.150;2023-12-20T16:05:56;15.90;60.40
2929;DHT22;1474;51.460;7.150;2023-12-20T16:08:21;15.90;60.40
2929;DHT22;1474;51.460;7.150;2023-12-20T16:10:47;16.00;60.40
2929;DHT22;1474;51.460;7.150;2023-12-20T16:13:13;15.90;60.40
2929;DHT22;1474;51.460;7.150;2023-12-20T16:15:38;16.00;60.40
2929;DHT22;1474;51.460;7.150;2023-12-20T16:18:04;16.00;60.40
2929;DHT22;1474;51.460;7.150;2023-12-20T16:20:34;16.00;60.50
2929;DHT22;1474;51.460;7.150;2023-12-20T16:23:00;16.00;60.40
2929;DHT22;1474;51.460;7.150;2023-12-20T16:25:26;15.90;60.40
2929;DHT22;1474;51.460;7.150;2023-12-20T16:27:52;16.00;61.00
2929;DHT22;1474;51.460;7.150;2023-12-20T16:30:17;16.00;60.40
2929;DHT22;1474;51.460;7.150;2023-12-20T16:32:43;16.00;60.40
2929;DHT22;1474;51.460;7.150;2023-12-20T16:35:09;16.00;60.40
2929;DHT22;1474;51.460;7.150;2023-12-20T16:37:35;16.00;60.40
2929;DHT22;1474;51.460;7.150;2023-12-20T16:40:07;15.90;60.40
2929;DHT22;1474;51.460;7.150;2023-12-20T16:42:33;16.00;60.40
2929;DHT22;1474;51.460;7.150;2023-12-20T16:44:59;15.90;60.40
2929;DHT22;1474;51.460;7.150;2023-12-20T16:47:25;16.00;60.40
2929;DHT22;1474;51.460;7.150;2023-12-20T16:49:51;15.90;60.40
2929;DHT22;1474;51.460;7.150;2023-12-20T16:52:17;15.90;60.40
2929;DHT22;1474;51.460;7.150;2023-12-20T16:54:42;16.00;60.80
2929;DHT22;1474;51.460;7.150;2023-12-20T16:57:08;15.90;60.40
2929;DHT22;1474;51.460;7.150;2023-12-20T16:59:34;16.00;60.40
2929;DHT22;1474;51.460;7.150;2023-12-20T17:02:00;16.00;60.40
2929;DHT22;1474;51.460;7.150;2023-12-20T17:04:28;15.90;60.40
2929;DHT22;1474;51.460;7.150;2023-12-20T17:06:56;16.00;60.40
2929;DHT22;1474;51.460;7.150;2023-12-20T17:09:22;15.90;60.40
2929;DHT22;1474;51.460;7.150;2023-12-20T17:11:47;16.00;60.40
2929;DHT22;1474;51.460;7.150;2023-12-20T17:14:14;16.00;60.40
2929;DHT22;1474;51.460;7.150;2023-12-20T17:16:39;15.90;60.30
2929;DHT22;1474;51.460;7.150;2023-12-20T17:19:05;16.00;60.40
2929;DHT22;1474;51.460;7.150;2023-12-20T17:21:31;16.00;60.40
2929;DHT22;1474;51.460;7.150;2023-12-20T17:23:57;16.00;60.40
2929;DHT22;1474;51.460;7.150;2023-12-20T17:26:23;16.00;60.40
2929;DHT22;1474;51.460;7.150;2023-12-20T17:28:49;16.00;60.40
2929;DHT22;1474;51.460;7.150;2023-12-20T17:31:14;16.00;60.40
2929;DHT22;1474;51.460;7.150;2023-12-20T17:33:40;16.00;60.40
2929;DHT22;1474;51.460;7.150;2023-12-20T17:36:06;16.00;60.40
2929;DHT22;1474;51.460;7.150;2023-12-20T17:38:32;16.00;60.40
2929;DHT22;1474;51.460;7.150;2023-12-20T17:41:02;16.00;60.40
2929;DHT22;1474;51.460;7.150;2023-12-20T17:43:29;16.00;60.40
2929;DHT22;1474;51.460;7.150;2023-12-20T17:45:54;16.00;60.40
2929;DHT22;1474;51.460;7.150;2023-12-20T17:48:20;16.00;60.40
2929;DHT22;1474;51.460;7.150;2023-12-20T17:50:47;16.00;60.40
2929;DHT22;1474;51.460;7.150;2023-12-20T17:53:14;15.90;60.40
2929;DHT22;1474;51.460;7.150;2023-12-20T17:55:39;15.90;60.40
2929;DHT22;1474;51.460;7.150;2023-12-20T17:58:05;15.90;60.40
2929;DHT22;1474;51.460;7.150;2023-12-20T18:00:35;16.00;60.40
2929;DHT22;1474;51.460;7.150;2023-12-20T18:03:01;16.00;60.40
2929;DHT22;1474;51.460;7.150;2023-12-20T18:05:27;16.00;61.00
2929;DHT22;1474;51.460;7.150;2023-12-20T18:07:52;15.90;60.40
2929;DHT22;1474;51.460;7.150;2023-12-20T18:10:19;16.00;60.40
2929;DHT22;1474;51.460;7.150;2023-12-20T18:12:46;16.00;60.40
2929;DHT22;1474;51.460;7.150;2023-12-20T18:15:15;15.90;60.40
2929;DHT22;1474;51.460;7.150;2023-12-20T18:17:41;16.00;60.40
2929;DHT22;1474;51.460;7.150;2023-12-20T18:20:07;16.00;60.50
2929;DHT22;1474;51.460;7.150;2023-12-20T18:22:33;15.90;60.40
2929;DHT22;1474;51.460;7.150;2023-12-20T18:24:59;16.00;60.50
2929;DHT22;1474;51.460;7.150;2023-12-20T18:27:25;16.00;60.50
2929;DHT22;1474;51.460;7.150;2023-12-20T18:29:53;16.00;60.50
2929;DHT22;1474;51.460;7.150;2023-12-20T18:32:19;16.00;60.40
2929;DHT22;1474;51.460;7.150;2023-12-20T18:34:45;16.00;60.50
2929;DHT22;1474;51.460;7.150;2023-12-20T18:37:11;16.00;60.50
2929;DHT22;1474;51.460;7.150;2023-12-20T18:39:38;16.00;60.50
2929;DHT22;1474;51.460;7.150;2023-12-20T18:42:04;16.00;61.10
2929;DHT22;1474;51.460;7.150;2023-12-20T18:44:31;16.00;60.50
2929;DHT22;1474;51.460;7.150;2023-12-20T18:47:00;15.90;60.40
2929;DHT22;1474;51.460;7.150;2023-12-20T18:49:26;16.00;60.40
2929;DHT22;1474;51.460;7.150;2023-12-20T18:51:53;16.00;60.40
2929;DHT22;1474;51.460;7.150;2023-12-20T18:54:19;16.00;60.40
2929;DHT22;1474;51.460;7.150;2023-12-20T18:56:46;15.90;60.40
2929;DHT22;1474;51.460;7.150;2023-12-20T18:59:13;16.00;60.40
2929;DHT22;1474;51.460;7.150;2023-12-20T19:01:42;16.00;60.40
2929;DHT22;1474;51.460;7.150;2023-12-20T19:04:08;16.00;60.40
2929;DHT22;1474;51.460;7.150;2023-12-20T19:06:34;16.00;60.70
2929;DHT22;1474;51.460;7.150;2023-12-20T19:09:00;16.00;60.50
2929;DHT22;1474;51.460;7.150;2023-12-20T19:11:25;16.10;60.40
2929;DHT22;1474;51.460;7.150;2023-12-20T19:13:51;16.10;60.60
2929;DHT22;1474;51.460;7.150;2023-12-20T19:16:17;16.20;60.60
2929;DHT22;1474;51.460;7.150;2023-12-20T19:18:43;16.30;60.60
2929;DHT22;1474;51.460;7.150;2023-12-20T19:21:09;16.40;60.50
2929;DHT22;1474;51.460;7.150;2023-12-20T19:23:34;16.40;60.30
2929;DHT22;1474;51.460;7.150;2023-12-20T19:26:00;16.50;60.20
2929;DHT22;1474;51.460;7.150;2023-12-20T19:28:28;16.50;60.20
2929;DHT22;1474;51.460;7.150;2023-12-20T19:30:54;16.60;60.20
2929;DHT22;1474;51.460;7.150;2023-12-20T19:33:23;16.60;60.00
2929;DHT22;1474;51.460;7.150;2023-12-20T19:35:48;16.60;60.00
2929;DHT22;1474;51.460;7.150;2023-12-20T19:38:14;16.70;59.90
2929;DHT22;1474;51.460;7.150;2023-12-20T19:40:41;16.70;59.80
2929;DHT22;1474;51.460;7.150;2023-12-20T19:43:07;16.70;59.70
2929;DHT22;1474;51.460;7.150;2023-12-20T19:45:34;16.70;59.70
2929;DHT22;1474;51.460;7.150;2023-12-20T19:48:00;16.70;59.60
2929;DHT22;1474;51.460;7.150;2023-12-20T19:50:26;16.80;59.60
2929;DHT22;1474;51.460;7.150;2023-12-20T19:52:51;16.80;59.60
2929;DHT22;1474;51.460;7.150;2023-12-20T19:55:17;16.80;59.50
2929;DHT22;1474;51.460;7.150;2023-12-20T19:57:43;16.80;59.50
2929;DHT22;1474;51.460;7.150;2023-12-20T20:00:09;16.80;59.50
2929;DHT22;1474;51.460;7.150;2023-12-20T20:02:35;16.80;59.40
2929;DHT22;1474;51.460;7.150;2023-12-20T20:05:04;16.80;59.30
2929;DHT22;1474;51.460;7.150;2023-12-20T20:07:32;16.80;59.40
2929;DHT22;1474;51.460;7.150;2023-12-20T20:09:58;16.80;59.40
2929;DHT22;1474;51.460;7.150;2023-12-20T20:12:24;16.80;59.40
2929;DHT22;1474;51.460;7.150;2023-12-20T20:14:50;16.80;59.40
2929;DHT22;1474;51.460;7.150;2023-12-20T20:17:16;16.80;59.40
2929;DHT22;1474;51.460;7.150;2023-12-20T20:19:42;16.80;59.40
2929;DHT22;1474;51.460;7.150;2023-12-20T20:22:07;16.80;59.30
2929;DHT22;1474;51.460;7.150;2023-12-20T20:24:33;16.80;59.30
2929;DHT22;1474;51.460;7.150;2023-12-20T20:26:59;16.80;59.80
2929;DHT22;1474;51.460;7.150;2023-12-20T20:29:25;16.80;59.30
2929;DHT22;1474;51.460;7.150;2023-12-20T20:31:51;16.80;59.30
2929;DHT22;1474;51.460;7.150;2023-12-20T20:34:16;16.70;59.30
2929;DHT22;1474;51.460;7.150;2023-12-20T20:36:44;16.70;59.30
2929;DHT22;1474;51.460;7.150;2023-12-20T20:39:10;16.70;59.30
2929;DHT22;1474;51.460;7.150;2023-12-20T20:41:38;16.70;59.30
2929;DHT22;1474;51.460;7.150;2023-12-20T20:44:03;16.70;59.30
2929;DHT22;1474;51.460;7.150;2023-12-20T20:46:29;16.70;59.30
2929;DHT22;1474;51.460;7.150;2023-12-20T20:48:57;16.70;59.80
2929;DHT22;1474;51.460;7.150;2023-12-20T20:51:22;16.70;59.30
2929;DHT22;1474;51.460;7.150;2023-12-20T20:53:48;16.70;59.30
2929;DHT22;1474;51.460;7.150;2023-12-20T20:56:14;16.70;59.30
2929;DHT22;1474;51.460;7.150;2023-12-20T20:58:39;16.70;59.30
2929;DHT22;1474;51.460;7.150;2023-12-20T21:01:05;16.70;59.30
2929;DHT22;1474;51.460;7.150;2023-12-20T21:03:31;16.70;59.30
2929;DHT22;1474;51.460;7.150;2023-12-20T21:05:57;16.70;59.30
2929;DHT22;1474;51.460;7.150;2023-12-20T21:08:23;16.70;59.40
2929;DHT22;1474;51.460;7.150;2023-12-20T21:10:49;16.70;59.30
2929;DHT22;1474;51.460;7.150;2023-12-20T21:13:15;16.70;59.40
2929;DHT22;1474;51.460;7.150;2023-12-20T21:15:41;16.60;59.30
2929;DHT22;1474;51.460;7.150;2023-12-20T21:18:07;16.70;59.40
2929;DHT22;1474;51.460;7.150;2023-12-20T21:20:33;16.70;59.40
2929;DHT22;1474;51.460;7.150;2023-12-20T21:22:58;16.70;59.40
2929;DHT22;1474;51.460;7.150;2023-12-20T21:25:24;16.70;59.40
2929;DHT22;1474;51.460;7.150;2023-12-20T21:27:50;16.70;59.40
2929;DHT22;1474;51.460;7.150;2023-12-20T21:30:17;16.70;59.40
2929;DHT22;1474;51.460;7.150;2023-12-20T21:32:43;16.60;59.40
2929;DHT22;1474;51.460;7.150;2023-12-20T21:35:10;16.60;59.40
2929;DHT22;1474;51.460;7.150;2023-12-20T21:37:37;16.60;59.50
2929;DHT22;1474;51.460;7.150;2023-12-20T21:40:03;16.60;59.50
2929;DHT22;1474;51.460;7.150;2023-12-20T21:42:31;16.60;59.40
2929;DHT22;1474;51.460;7.150;2023-12-20T21:44:57;16.60;59.50
2929;DHT22;1474;51.460;7.150;2023-12-20T21:47:24;16.60;59.50
2929;DHT22;1474;51.460;7.150;2023-12-20T21:49:49;16.60;59.50
2929;DHT22;1474;51.460;7.150;2023-12-20T21:52:15;16.60;59.50
2929;DHT22;1474;51.460;7.150;2023-12-20T21:54:41;16.60;59.50
2929;DHT22;1474;51.460;7.150;2023-12-20T21:57:06;16.60;59.60
2929;DHT22;1474;51.460;7.150;2023-12-20T21:59:32;16.60;60.10
2929;DHT22;1474;51.460;7.150;2023-12-20T22:02:00;16.50;59.50
2929;DHT22;1474;51.460;7.150;2023-12-20T22:04:26;16.60;59.60
2929;DHT22;1474;51.460;7.150;2023-12-20T22:06:52;16.50;59.60